Time;durP1;ratioP1;P1;durP2;ratioP2;P2;SDS_P1;SDS_P2;PMS_P1;PMS_P2;Temp;Humidity;BMP_temperature;BMP_pressure;BME280_temperature;BME280_humidity;BME280_pressure;Samples;Min_cycle;Max_cycle;Signal;HPM_P1;HPM_P2
2021/09/02 00:02:06;;;;;;;24.37;16.20;;;;;;;18.96;100.00;99305.73;1653261;86;20960;-66
2021/09/02 00:04:33;;;;;;;20.80;16.70;;;;;;;18.90;100.00;99305.97;1638583;85;21552;-67
2021/09/02 00:07:00;;;;;;;25.73;17.53;;;;;;;18.87;100.00;99307.84;1639732;86;21121;-67
2021/09/02 00:09:26;;;;;;;22.70;17.13;;;;;;;18.98;100.00;99299.39;1624320;86;21122;-66
2021/09/02 00:11:53;;;;;;;23.57;15.70;;;;;;;19.04;100.00;99301.78;1631036;85;21027;-66
2021/09/02 00:14:19;;;;;;;21.47;15.03;;;;;;;19.11;100.00;99303.65;1632233;86;21529;-67
2021/09/02 00:16:47;;;;;;;19.57;15.73;;;;;;;18.90;100.00;99302.02;1624363;86;21175;-69
2021/09/02 00:19:14;;;;;;;22.47;17.13;;;;;;;18.89;100.00;99302.55;1630238;86;21097;-66
2021/09/02 00:21:40;;;;;;;18.33;13.57;;;;;;;19.05;100.00;99298.08;1619924;86;21070;-66
2021/09/02 00:24:07;;;;;;;19.60;13.90;;;;;;;18.93;100.00;99300.97;1629773;86;20988;-67
2021/09/02 00:26:33;;;;;;;21.13;13.80;;;;;;;18.80;100.00;99295.41;1630099;86;21536;-68
2021/09/02 00:29:00;;;;;;;20.17;15.03;;;;;;;18.75;100.00;99286.92;1628492;86;21168;-67
2021/09/02 00:31:28;;;;;;;23.70;14.80;;;;;;;18.84;100.00;99281.42;1624126;86;20959;-66
2021/09/02 00:33:54;;;;;;;20.10;13.20;;;;;;;18.92;100.00;99286.72;1628167;86;20956;-66
2021/09/02 00:36:21;;;;;;;21.80;14.47;;;;;;;18.87;100.00;99295.42;1632167;86;21030;-66
2021/09/02 00:38:47;;;;;;;17.60;12.07;;;;;;;18.78;100.00;99294.86;1637113;86;21019;-68
2021/09/02 00:41:14;;;;;;;16.93;12.60;;;;;;;18.77;100.00;99291.43;1636887;86;22848;-66
2021/09/02 00:43:41;;;;;;;17.43;12.43;;;;;;;18.94;100.00;99293.84;1636209;86;21107;-66
2021/09/02 00:46:10;;;;;;;18.43;12.23;;;;;;;18.94;100.00;99286.73;1631640;86;21441;-66
2021/09/02 00:48:37;;;;;;;17.93;12.07;;;;;;;18.79;100.00;99284.56;1625698;86;20963;-68
2021/09/02 00:51:03;;;;;;;19.37;12.83;;;;;;;18.81;100.00;99277.19;1631141;86;21018;-67
2021/09/02 00:53:31;;;;;;;18.33;12.20;;;;;;;18.81;100.00;99273.23;1626362;86;21170;-66
2021/09/02 00:55:57;;;;;;;19.77;12.87;;;;;;;18.78;100.00;99277.70;1631625;86;20932;-67
2021/09/02 00:58:24;;;;;;;15.93;13.23;;;;;;;18.67;100.00;99275.53;1648733;86;21120;-66
2021/09/02 01:00:51;;;;;;;16.30;13.27;;;;;;;18.57;100.00;99271.56;1630726;86;21086;-69
2021/09/02 01:03:18;;;;;;;15.63;12.53;;;;;;;18.52;100.00;99264.92;1629619;86;21042;-65
2021/09/02 01:05:49;;;;;;;15.77;11.37;;;;;;;18.47;100.00;99259.11;1664634;85;21236;-66
2021/09/02 01:08:15;;;;;;;14.68;12.28;;;;;;;18.51;100.00;99261.50;1615297;86;21063;-66
2021/09/02 01:10:42;;;;;;;20.30;12.00;;;;;;;18.53;100.00;99259.94;1700339;83;20919;-68
2021/09/02 01:13:10;;;;;;;16.93;12.90;;;;;;;18.62;100.00;99269.72;1704182;83;21002;-67
2021/09/02 01:15:38;;;;;;;14.87;12.30;;;;;;;18.55;100.00;99265.20;1703911;83;21081;-67
2021/09/02 01:18:04;;;;;;;19.30;12.80;;;;;;;18.44;100.00;99260.94;1697296;83;21792;-66
2021/09/02 01:20:31;;;;;;;17.23;13.00;;;;;;;18.34;100.00;99255.65;1699957;83;20939;-66
2021/09/02 01:23:02;;;;;;;17.47;12.87;;;;;;;18.29;100.00;99258.25;1702345;83;21014;-69
2021/09/02 01:25:31;;;;;;;15.60;11.80;;;;;;;18.27;100.00;99253.77;1710410;83;21109;-68
2021/09/02 01:28:03;;;;;;;17.17;11.80;;;;;;;18.24;100.00;99261.13;1705460;83;21538;-68
2021/09/02 01:30:29;;;;;;;13.70;11.27;;;;;;;18.34;100.00;99256.97;1712186;83;21202;-68
2021/09/02 01:32:56;;;;;;;16.03;10.57;;;;;;;18.17;100.00;99251.34;1711021;83;20890;-70
2021/09/02 01:35:23;;;;;;;15.57;9.97;;;;;;;18.15;100.00;99260.05;1711139;83;22270;-69
2021/09/02 01:37:53;;;;;;;17.90;10.63;;;;;;;18.14;100.00;99257.66;1704386;83;22020;-68
2021/09/02 01:40:27;;;;;;;13.53;11.00;;;;;;;18.21;100.00;99247.66;1702407;83;21066;-68
2021/09/02 01:42:54;;;;;;;13.77;11.53;;;;;;;18.24;100.00;99249.80;1699641;83;21147;-69
2021/09/02 01:45:20;;;;;;;16.07;12.47;;;;;;;18.23;100.00;99252.96;1697487;83;22059;-68
2021/09/02 01:47:47;;;;;;;15.33;12.07;;;;;;;18.32;100.00;99247.19;1710290;83;21071;-68
2021/09/02 01:50:21;;;;;;;17.73;11.50;;;;;;;18.36;100.00;99246.41;1709555;83;21034;-68
2021/09/02 01:52:53;;;;;;;15.70;11.63;;;;;;;18.52;100.00;99247.24;1706140;83;20951;-70
2021/09/02 01:55:21;;;;;;;16.80;12.27;;;;;;;18.67;100.00;99253.87;1714681;83;21181;-69
2021/09/02 01:57:48;;;;;;;16.23;11.73;;;;;;;18.65;100.00;99257.85;1708497;83;21006;-68
2021/09/02 02:00:15;;;;;;;15.90;11.77;;;;;;;18.78;100.00;99264.50;1696746;83;21006;-68
2021/09/02 02:02:42;;;;;;;16.20;12.07;;;;;;;18.91;100.00;99263.48;1705550;83;20963;-70
2021/09/02 02:05:09;;;;;;;19.30;12.40;;;;;;;18.99;100.00;99266.66;1704891;83;21521;-69
2021/09/02 02:07:37;;;;;;;18.80;13.43;;;;;;;18.77;100.00;99266.35;1707785;83;21149;-69
2021/09/02 02:10:08;;;;;;;14.93;12.10;;;;;;;18.81;100.00;99263.45;1708088;83;20943;-69
2021/09/02 02:12:35;;;;;;;17.40;12.77;;;;;;;18.91;100.00;99256.09;1707895;83;21006;-70
2021/09/02 02:15:02;;;;;;;15.50;12.13;;;;;;;18.83;100.00;99263.21;1708768;83;21165;-68
2021/09/02 02:17:29;;;;;;;16.90;12.83;;;;;;;18.71;100.00;99251.55;1708089;83;20920;-69
2021/09/02 02:19:57;;;;;;;17.37;11.73;;;;;;;18.76;100.00;99252.11;1708623;83;21551;-69
2021/09/02 02:22:24;;;;;;;14.93;12.17;;;;;;;18.83;100.00;99243.41;1700916;83;21501;-69
2021/09/02 02:24:51;;;;;;;16.47;10.60;;;;;;;18.62;100.00;99239.36;1706669;83;20998;-69
2021/09/02 02:27:17;;;;;;;14.70;9.40;;;;;;;18.53;100.00;99230.91;1709245;83;21178;-69
2021/09/02 02:29:44;;;;;;;11.57;8.03;;;;;;;18.55;100.00;99224.83;1703576;83;21101;-69
2021/09/02 02:32:11;;;;;;;12.37;8.30;;;;;;;18.44;100.00;99220.04;1699105;83;22106;-69
2021/09/02 02:34:37;;;;;;;11.10;8.47;;;;;;;18.28;100.00;99219.73;1705030;83;20920;-71
2021/09/02 02:37:05;;;;;;;11.50;8.10;;;;;;;18.23;100.00;99219.98;1706932;83;22460;-69
2021/09/02 02:39:32;;;;;;;13.43;9.33;;;;;;;18.06;100.00;99222.02;1709541;83;21122;-69
2021/09/02 02:42:00;;;;;;;14.73;11.13;;;;;;;17.97;100.00;99225.67;1700447;83;21059;-69
2021/09/02 02:44:27;;;;;;;13.47;10.10;;;;;;;17.71;100.00;99228.67;1706235;83;22114;-69
2021/09/02 02:46:54;;;;;;;12.47;9.47;;;;;;;17.61;100.00;99222.01;1704082;83;20956;-68
2021/09/02 02:49:21;;;;;;;12.93;9.43;;;;;;;17.67;100.00;99214.94;1702117;83;21086;-68
2021/09/02 02:51:49;;;;;;;12.20;7.80;;;;;;;17.84;100.00;99211.66;1706805;83;21038;-68
2021/09/02 02:54:15;;;;;;;12.53;8.07;;;;;;;17.89;100.00;99222.22;1705122;83;20900;-70
2021/09/02 02:56:42;;;;;;;11.60;8.10;;;;;;;17.89;100.00;99222.22;1705522;83;21138;-70
2021/09/02 02:59:08;;;;;;;16.23;11.37;;;;;;;17.98;100.00;99229.89;1698898;83;21080;-69
2021/09/02 03:01:35;;;;;;;17.30;10.57;;;;;;;17.95;100.00;99226.44;1670737;83;21040;-69
2021/09/02 03:04:02;;;;;;;13.83;10.27;;;;;;;18.01;100.00;99224.64;1650491;86;21097;-69
2021/09/02 03:06:28;;;;;;;15.23;9.97;;;;;;;17.98;100.00;99222.52;1650370;86;20965;-70
2021/09/02 03:08:55;;;;;;;14.67;9.53;;;;;;;18.13;100.00;99217.30;1671323;84;21605;-69
2021/09/02 03:11:22;;;;;;;12.33;8.60;;;;;;;18.15;100.00;99220.48;1674510;83;21353;-69
2021/09/02 03:13:50;;;;;;;13.63;8.77;;;;;;;17.98;100.00;99231.73;1675376;83;21518;-69
2021/09/02 03:16:17;;;;;;;16.60;10.80;;;;;;;17.83;100.00;99219.80;1674250;85;20901;-71
2021/09/02 03:18:44;;;;;;;15.23;11.13;;;;;;;17.88;100.00;99219.31;1675119;85;20971;-70
2021/09/02 03:21:10;;;;;;;16.03;11.07;;;;;;;18.05;100.00;99214.38;1675086;83;22399;-69
2021/09/02 03:23:37;;;;;;;15.40;10.77;;;;;;;18.07;100.00;99218.35;1674733;83;21027;-69
2021/09/02 03:26:03;;;;;;;16.00;10.40;;;;;;;18.14;100.00;99210.97;1676884;83;21107;-70
2021/09/02 03:28:30;;;;;;;17.80;11.27;;;;;;;18.34;100.00;99206.84;1674732;83;21020;-70
2021/09/02 03:30:57;;;;;;;16.20;10.87;;;;;;;18.41;100.00;99212.64;1668848;83;22450;-68
2021/09/02 03:33:24;;;;;;;13.50;10.50;;;;;;;18.51;100.00;99213.20;1673353;83;21166;-68
2021/09/02 03:35:50;;;;;;;14.33;10.13;;;;;;;18.68;100.00;99210.61;1673304;83;21016;-68
2021/09/02 03:38:18;;;;;;;14.80;9.57;;;;;;;18.91;100.00;99215.16;1674417;85;21000;-69
2021/09/02 03:40:45;;;;;;;17.87;10.80;;;;;;;18.84;100.00;99211.45;1674531;84;21486;-71
2021/09/02 03:43:11;;;;;;;16.03;9.93;;;;;;;18.93;100.00;99211.71;1674400;85;21095;-68
2021/09/02 03:45:39;;;;;;;17.27;10.73;;;;;;;19.37;100.00;99210.66;1676411;83;21161;-71
2021/09/02 03:48:05;;;;;;;14.83;11.70;;;;;;;19.84;100.00;99202.12;1673091;85;20912;-70
2021/09/02 03:50:32;;;;;;;18.17;11.90;;;;;;;19.87;100.00;99201.05;1674623;85;21076;-72
2021/09/02 03:52:59;;;;;;;17.53;12.00;;;;;;;20.19;100.00;99199.86;1673319;85;21099;-70
2021/09/02 03:55:26;;;;;;;16.07;12.03;;;;;;;19.96;100.00;99199.16;1671779;85;21027;-69
2021/09/02 03:57:52;;;;;;;15.73;11.00;;;;;;;19.96;100.00;99192.55;1674812;85;21847;-68
2021/09/02 04:00:19;;;;;;;18.73;10.67;;;;;;;19.72;100.00;99191.05;1674735;85;21051;-68
2021/09/02 04:02:46;;;;;;;14.63;10.00;;;;;;;19.88;100.00;99183.33;1665189;84;21030;-69
2021/09/02 04:05:13;;;;;;;24.43;11.07;;;;;;;19.79;100.00;99184.95;1664680;84;21150;-69
2021/09/02 04:07:41;;;;;;;13.47;9.93;;;;;;;19.77;100.00;99174.62;1663681;84;21008;-70
2021/09/02 04:10:09;;;;;;;12.67;9.40;;;;;;;19.64;100.00;99178.64;1665458;84;21145;-71
2021/09/02 04:12:36;;;;;;;13.83;9.37;;;;;;;19.42;100.00;99168.89;1666749;84;21043;-73
2021/09/02 04:15:05;;;;;;;12.70;9.63;;;;;;;19.20;100.00;99163.89;1661606;84;20976;-70
2021/09/02 04:17:32;;;;;;;13.90;9.40;;;;;;;19.13;100.00;99160.22;1667522;84;20992;-67
2021/09/02 04:19:59;;;;;;;14.83;9.83;;;;;;;19.57;100.00;99150.88;1664660;84;20978;-67
2021/09/02 04:22:25;;;;;;;12.43;10.17;;;;;;;20.04;100.00;99152.30;1628264;86;21124;-66
2021/09/02 04:24:53;;;;;;;16.07;11.47;;;;;;;20.62;100.00;99149.89;1616382;86;20968;-73
2021/09/02 04:27:20;;;;;;;14.53;11.33;;;;;;;20.95;100.00;99137.72;1621965;86;20960;-68
2021/09/02 04:29:46;;;;;;;14.20;10.63;;;;;;;21.31;100.00;99136.04;1617665;86;21502;-68
2021/09/02 04:32:13;;;;;;;14.93;10.10;;;;;;;21.99;100.00;99126.52;1621627;86;21093;-68
2021/09/02 04:34:40;;;;;;;12.53;9.80;;;;;;;22.94;100.00;99119.29;1594917;88;21175;-67
2021/09/02 04:37:07;;;;;;;13.70;9.27;;;;;;;23.69;100.00;99116.85;1612898;87;21052;-68
2021/09/02 04:39:33;;;;;;;11.07;9.20;;;;;;;24.64;100.00;99106.78;1631257;86;21193;-70
2021/09/02 04:42:00;;;;;;;11.83;9.67;;;;;;;25.34;100.00;99107.38;1664527;84;21529;-68
2021/09/02 04:44:27;;;;;;;12.93;8.67;;;;;;;26.21;100.00;99100.88;1669188;84;21012;-67
2021/09/02 04:46:54;;;;;;;12.30;8.90;;;;;;;26.23;100.00;99107.26;1662666;84;21152;-71
2021/09/02 04:49:20;;;;;;;10.93;9.57;;;;;;;26.27;93.73;99100.97;1624159;87;21043;-68
2021/09/02 04:51:47;;;;;;;9.80;8.43;;;;;;;26.46;90.76;99097.21;1623074;86;21053;-66
2021/09/02 04:54:13;;;;;;;9.90;8.00;;;;;;;26.17;94.51;99095.38;1623751;87;21167;-66
2021/09/02 04:56:40;;;;;;;10.10;8.23;;;;;;;26.73;84.90;99086.14;1626151;87;20975;-70
2021/09/02 04:59:07;;;;;;;11.73;8.47;;;;;;;27.53;74.16;99088.20;1625021;86;21556;-68
2021/09/02 05:01:35;;;;;;;11.77;9.57;;;;;;;27.71;70.10;99088.32;1633160;86;21054;-68
2021/09/02 05:04:01;;;;;;;14.33;11.00;;;;;;;28.25;68.44;99076.34;1646626;86;21008;-70
2021/09/02 05:06:29;;;;;;;15.88;13.83;;;;;;;28.85;61.01;99068.25;1651017;85;21108;-68
2021/09/02 05:08:55;;;;;;;8.75;7.40;;;;;;;29.50;54.52;99064.92;1647809;86;21003;-65
2021/09/02 05:11:22;;;;;;;8.15;6.97;;;;;;;29.31;53.46;99060.14;1649534;86;21166;-69
2021/09/02 05:13:48;;;;;;;11.28;9.80;;;;;;;29.51;50.19;99059.23;1647094;86;21078;-68
2021/09/02 05:16:16;;;;;;;11.33;7.75;;;;;;;29.57;49.90;99049.03;1612501;88;21082;-68
2021/09/02 05:18:43;;;;;;;7.75;6.92;;;;;;;29.86;49.58;99048.55;1604156;89;21032;-70
2021/09/02 05:21:10;;;;;;;6.62;5.08;;;;;;;30.19;47.53;99036.22;1602967;89;21170;-69
2021/09/02 05:23:36;;;;;;;6.30;4.90;;;;;;;30.08;44.83;99026.52;1606610;89;21495;-70
2021/09/02 05:26:03;;;;;;;7.12;5.72;;;;;;;30.08;44.83;99026.52;1601530;89;21067;-69
2021/09/02 05:28:29;;;;;;;6.83;6.12;;;;;;;29.75;46.05;99028.88;1605731;89;20980;-68
2021/09/02 05:30:57;;;;;;;7.05;6.33;;;;;;;29.80;45.96;99029.97;1600637;88;21334;-68
2021/09/02 05:33:25;;;;;;;6.67;5.55;;;;;;;29.65;45.18;99029.91;1604202;89;21466;-70
2021/09/02 05:35:51;;;;;;;8.18;6.17;;;;;;;29.26;45.83;99020.89;1601480;89;22963;-69
2021/09/02 05:38:17;;;;;;;6.40;4.85;;;;;;;28.89;47.09;99017.97;1603992;87;21099;-69
2021/09/02 05:40:45;;;;;;;7.97;5.60;;;;;;;28.43;47.15;99028.75;1605074;89;21076;-68
2021/09/02 05:43:11;;;;;;;9.00;5.70;;;;;;;28.04;48.51;99030.05;1605062;89;21158;-68
2021/09/02 05:45:38;;;;;;;8.53;5.17;;;;;;;27.93;49.25;99020.86;1605654;89;21150;-71
2021/09/02 05:48:06;;;;;;;7.67;5.60;;;;;;;27.93;50.29;99019.52;1607123;89;22354;-70
2021/09/02 05:50:32;;;;;;;7.28;5.42;;;;;;;28.05;54.17;99015.55;1606593;88;21127;-67
2021/09/02 05:52:59;;;;;;;6.22;4.80;;;;;;;28.10;51.67;99009.97;1606714;88;21537;-70
2021/09/02 05:55:25;;;;;;;8.18;5.15;;;;;;;28.06;50.55;99011.18;1606532;89;21067;-68
2021/09/02 05:57:53;;;;;;;7.87;4.95;;;;;;;27.73;50.61;99004.45;1608522;88;21033;-68
2021/09/02 06:00:20;;;;;;;6.10;5.50;;;;;;;27.56;50.97;99006.69;1609291;89;21209;-68
2021/09/02 06:02:46;;;;;;;7.63;4.97;;;;;;;27.41;52.13;99016.08;1636983;86;21569;-68
2021/09/02 06:05:12;;;;;;;5.97;5.33;;;;;;;27.18;53.23;99012.13;1648633;85;21555;-70
2021/09/02 06:07:39;;;;;;;6.83;5.43;;;;;;;27.02;54.03;99008.42;1636717;85;21098;-68
2021/09/02 06:10:09;;;;;;;8.10;5.80;;;;;;;26.99;57.04;99005.05;1633482;87;21014;-69
2021/09/02 06:12:37;;;;;;;7.62;5.90;;;;;;;27.18;60.06;99008.13;1637201;85;21054;-68
2021/09/02 06:15:07;;;;;;;7.90;5.77;;;;;;;27.43;59.65;99005.06;1675178;85;21015;-69
2021/09/02 06:17:36;;;;;;;6.97;5.28;;;;;;;27.60;56.78;99006.27;1675829;83;21071;-69
2021/09/02 06:20:05;;;;;;;7.63;5.27;;;;;;;27.82;58.16;99015.11;1674775;83;21098;-69
2021/09/02 06:22:32;;;;;;;8.35;6.15;;;;;;;28.01;56.07;99015.97;1673371;83;21146;-69
2021/09/02 06:24:58;;;;;;;9.68;6.80;;;;;;;28.40;52.99;99011.98;1651943;85;21118;-68
2021/09/02 06:27:24;;;;;;;6.22;5.33;;;;;;;28.86;52.73;99010.80;1637546;85;20911;-70
2021/09/02 06:29:51;;;;;;;13.62;6.28;;;;;;;29.51;48.31;99007.41;1639007;85;21118;-68
2021/09/02 06:32:17;;;;;;;7.53;6.40;;;;;;;30.63;44.58;99004.70;1640792;85;21155;-69
2021/09/02 06:34:44;;;;;;;9.48;6.35;;;;;;;30.63;44.58;99004.70;1632830;85;21651;-69
2021/09/02 06:37:10;;;;;;;11.55;6.42;;;;;;;31.16;42.69;99008.45;1634125;85;21131;-69
2021/09/02 06:39:37;;;;;;;10.13;7.55;;;;;;;31.14;41.69;99033.59;1635221;85;20964;-72
2021/09/02 06:42:04;;;;;;;9.98;6.75;;;;;;;30.80;42.18;99033.21;1632867;87;21006;-69
2021/09/02 06:44:32;;;;;;;9.05;6.83;;;;;;;30.26;43.47;99027.78;1635828;87;21112;-69
2021/09/02 06:46:59;;;;;;;8.50;6.58;;;;;;;30.09;45.15;99020.58;1634762;85;21082;-68
2021/09/02 06:49:26;;;;;;;9.90;7.42;;;;;;;30.35;45.32;99010.17;1636418;85;21153;-70
2021/09/02 06:51:53;;;;;;;13.05;7.47;;;;;;;30.65;43.89;99015.91;1634068;85;21549;-71
2021/09/02 06:54:22;;;;;;;12.95;7.95;;;;;;;30.83;43.47;99020.95;1634544;87;20959;-70
2021/09/02 06:56:50;;;;;;;10.65;8.40;;;;;;;30.80;43.42;99021.64;1628841;85;20976;-72
2021/09/02 06:59:17;;;;;;;10.80;8.63;;;;;;;30.59;43.56;99012.48;1634480;87;21143;-71
2021/09/02 07:01:43;;;;;;;9.53;8.00;;;;;;;30.50;43.52;99011.31;1633783;87;21855;-72
2021/09/02 07:04:10;;;;;;;11.80;9.18;;;;;;;30.13;45.37;99020.11;1643933;85;21638;-71
2021/09/02 07:06:36;;;;;;;12.23;8.65;;;;;;;29.89;46.50;99016.95;1637428;85;21087;-70
2021/09/02 07:09:03;;;;;;;14.75;9.40;;;;;;;29.85;46.20;99008.02;1643559;85;21568;-70
2021/09/02 07:11:29;;;;;;;13.68;10.72;;;;;;;29.76;46.05;99010.84;1641438;85;21039;-72
2021/09/02 07:13:57;;;;;;;18.27;12.68;;;;;;;29.50;44.46;99012.56;1640332;85;21103;-70
2021/09/02 07:16:25;;;;;;;17.95;12.90;;;;;;;29.34;43.37;99009.25;1637620;85;20984;-69
2021/09/02 07:18:53;;;;;;;21.73;15.37;;;;;;;29.05;44.90;99014.86;1637415;85;21082;-69
2021/09/02 07:21:20;;;;;;;17.60;14.57;;;;;;;28.47;47.22;99015.47;1635222;85;21552;-68
2021/09/02 07:23:46;;;;;;;17.60;12.80;;;;;;;28.16;49.24;99014.02;1634454;85;21037;-70
2021/09/02 07:26:12;;;;;;;19.67;14.57;;;;;;;27.73;52.04;99010.34;1629509;85;21215;-71
2021/09/02 07:28:39;;;;;;;18.27;14.00;;;;;;;27.26;55.24;98996.58;1646651;85;21039;-69
2021/09/02 07:31:06;;;;;;;16.77;11.10;;;;;;;26.77;62.37;98990.83;1637924;85;21022;-68
2021/09/02 07:33:33;;;;;;;13.80;10.60;;;;;;;26.54;68.01;98986.28;1640365;85;21077;-69
2021/09/02 07:36:01;;;;;;;12.43;9.10;;;;;;;26.50;66.89;98981.34;1638048;85;21577;-68
2021/09/02 07:38:28;;;;;;;13.67;9.27;;;;;;;26.51;66.77;98987.47;1640430;85;21318;-69
2021/09/02 07:40:55;;;;;;;11.77;8.07;;;;;;;26.69;70.34;98994.33;1642225;85;20979;-68
2021/09/02 07:43:22;;;;;;;11.30;8.40;;;;;;;26.81;67.07;99000.33;1634846;85;20971;-68
2021/09/02 07:45:50;;;;;;;9.43;7.80;;;;;;;26.75;67.69;98997.62;1630716;85;21068;-68
2021/09/02 07:48:16;;;;;;;12.80;9.90;;;;;;;27.03;67.51;98997.39;1632832;86;21010;-70
2021/09/02 07:50:43;;;;;;;13.93;8.77;;;;;;;27.18;66.63;98992.07;1635920;85;21153;-68
2021/09/02 07:53:09;;;;;;;12.87;8.67;;;;;;;27.18;70.56;98989.95;1640278;85;21524;-69
2021/09/02 07:55:36;;;;;;;14.33;9.80;;;;;;;27.22;71.94;98986.86;1636374;85;21138;-69
2021/09/02 07:58:04;;;;;;;11.97;8.70;;;;;;;27.07;75.35;98974.23;1636878;85;21015;-69
2021/09/02 08:00:31;;;;;;;14.63;8.93;;;;;;;27.20;74.49;98962.30;1644125;85;21023;-69
2021/09/02 08:02:57;;;;;;;10.10;8.67;;;;;;;27.26;71.07;98963.14;1641539;85;21106;-70
2021/09/02 08:05:25;;;;;;;10.97;8.30;;;;;;;27.38;69.07;98955.17;1692984;83;21090;-70
2021/09/02 08:07:55;;;;;;;12.60;8.90;;;;;;;27.38;69.83;98951.72;1684115;83;21002;-71
2021/09/02 08:10:24;;;;;;;12.20;8.70;;;;;;;27.47;70.51;98944.98;1682376;83;21272;-69
2021/09/02 08:12:53;;;;;;;11.93;7.73;;;;;;;27.70;66.48;98931.47;1678729;83;21007;-72
2021/09/02 08:15:21;;;;;;;13.63;9.40;;;;;;;27.79;61.83;98922.05;1683736;83;21120;-72
2021/09/02 08:17:49;;;;;;;28.33;19.07;;;;;;;27.79;61.67;98912.11;1681053;83;20927;-73
2021/09/02 08:20:16;;;;;;;31.50;22.57;;;;;;;27.84;61.45;98909.77;1680406;83;21122;-72
2021/09/02 08:22:42;;;;;;;20.50;14.90;;;;;;;27.98;61.08;98910.83;1679824;83;21010;-72
2021/09/02 08:25:10;;;;;;;14.03;10.27;;;;;;;28.04;61.47;98902.25;1677843;83;21132;-72
2021/09/02 08:27:38;;;;;;;18.53;15.17;;;;;;;28.19;60.94;98892.80;1682064;83;21163;-72
2021/09/02 08:30:07;;;;;;;51.17;41.77;;;;;;;28.10;59.76;98888.07;1679453;83;21022;-72
2021/09/02 08:32:33;;;;;;;32.57;26.93;;;;;;;28.18;58.37;98897.91;1676752;83;21007;-69
2021/09/02 08:35:00;;;;;;;29.83;20.87;;;;;;;28.25;58.38;98894.13;1680499;83;21085;-71
2021/09/02 08:37:36;;;;;;;19.53;15.10;;;;;;;28.33;57.21;98893.23;1764452;79;27976;-67
2021/09/02 08:40:04;;;;;;;17.03;10.63;;;;;;;28.30;55.06;98889.91;1746536;81;20957;-67
2021/09/02 08:42:31;;;;;;;25.17;17.33;;;;;;;28.49;52.86;98892.59;1749807;81;21811;-68
2021/09/02 08:44:57;;;;;;;18.77;12.10;;;;;;;28.44;52.47;98889.58;1748096;81;20995;-70
2021/09/02 08:47:24;;;;;;;12.87;7.60;;;;;;;28.44;52.93;98887.47;1748970;81;21022;-68
2021/09/02 08:49:50;;;;;;;14.77;9.60;;;;;;;28.67;51.04;98885.11;1749921;80;21030;-68
2021/09/02 08:52:17;;;;;;;15.80;10.90;;;;;;;28.59;50.71;98883.55;1666953;81;20997;-68
2021/09/02 08:54:47;;;;;;;13.17;8.30;;;;;;;28.59;52.07;98883.55;1716374;81;21214;-69
2021/09/02 08:57:15;;;;;;;8.60;5.47;;;;;;;28.79;51.67;98879.19;1719105;81;21037;-71
2021/09/02 08:59:42;;;;;;;7.57;4.27;;;;;;;29.05;49.02;98875.34;1719132;81;21013;-68
2021/09/02 09:02:28;;;;;;;18.87;11.93;;;;;;;29.24;45.88;98873.39;1722332;81;20911;-69
2021/09/02 09:05:09;;;;;;;8.67;5.10;;;;;;;29.58;45.21;98876.08;1688949;84;21085;-68
2021/09/02 09:07:40;;;;;;;7.00;4.40;;;;;;;29.63;44.04;98865.67;1713160;83;21131;-68
2021/09/02 09:10:12;;;;;;;8.53;6.57;;;;;;;29.72;43.87;98862.25;1687124;84;21354;-68
2021/09/02 09:12:43;;;;;;;9.43;6.53;;;;;;;29.86;43.89;98859.94;1691535;84;21015;-69
2021/09/02 09:15:18;;;;;;;15.40;6.67;;;;;;;29.96;43.72;98858.63;1713069;83;21458;-69
2021/09/02 09:17:45;;;;;;;10.03;6.93;;;;;;;30.01;45.86;98850.33;1711703;83;21361;-69
2021/09/02 09:20:12;;;;;;;7.00;4.53;;;;;;;30.26;44.48;98857.09;1714740;83;21049;-70
2021/09/02 09:22:38;;;;;;;6.67;4.78;;;;;;;30.32;43.06;98848.20;1705477;82;20991;-69
2021/09/02 09:25:07;;;;;;;6.78;4.87;;;;;;;30.31;43.20;98848.00;1689221;83;21099;-69
2021/09/02 09:27:39;;;;;;;6.65;4.85;;;;;;;30.40;43.51;98844.55;1708189;83;20955;-67
2021/09/02 09:30:21;;;;;;;8.10;5.50;;;;;;;30.40;44.59;98839.74;1709563;83;21581;-69
2021/09/02 09:33:01;;;;;;;8.93;5.53;;;;;;;30.82;44.36;98836.45;1694846;84;21966;-69
2021/09/02 09:35:31;;;;;;;9.05;5.37;;;;;;;31.60;44.30;98832.62;1698700;84;21848;-69
2021/09/02 09:38:16;;;;;;;11.37;5.83;;;;;;;32.36;42.67;98831.36;1693229;84;20980;-69
2021/09/02 09:40:51;;;;;;;6.97;5.00;;;;;;;33.34;39.53;98820.67;1716329;83;20990;-70
2021/09/02 09:43:23;;;;;;;7.25;6.08;;;;;;;34.00;36.44;98823.05;1714684;83;21468;-68
2021/09/02 09:45:55;;;;;;;10.18;5.72;;;;;;;34.50;35.60;98824.75;1712078;83;21151;-69
2021/09/02 09:48:38;;;;;;;9.90;6.20;;;;;;;34.50;35.60;98824.75;1714831;83;21643;-69
2021/09/02 09:51:12;;;;;;;10.00;6.90;;;;;;;34.69;35.73;98821.56;1709075;83;21250;-68
2021/09/02 09:53:44;;;;;;;9.83;6.70;;;;;;;34.57;34.65;98818.02;1706097;83;21058;-70
2021/09/02 09:56:11;;;;;;;10.03;5.97;;;;;;;34.53;34.54;98815.11;1713090;81;20967;-68
2021/09/02 09:58:38;;;;;;;9.55;6.08;;;;;;;33.89;34.90;98804.59;1716648;81;21134;-71
2021/09/02 10:01:06;;;;;;;10.03;6.12;;;;;;;33.38;35.63;98807.98;1716673;81;21078;-69
2021/09/02 10:03:35;;;;;;;8.93;5.53;;;;;;;32.69;36.56;98805.06;1709117;81;21057;-68
2021/09/02 10:06:06;;;;;;;8.25;6.30;;;;;;;32.40;37.15;98795.03;1717447;81;21030;-69
2021/09/02 10:08:36;;;;;;;11.85;6.42;;;;;;;31.97;37.54;98793.01;1711461;81;21129;-69
2021/09/02 10:11:07;;;;;;;16.93;12.82;;;;;;;31.49;38.49;98786.64;1712137;81;21165;-69
2021/09/02 10:13:34;;;;;;;14.53;11.03;;;;;;;30.99;39.63;98788.39;1714625;81;21062;-69
2021/09/02 10:16:02;;;;;;;15.05;12.10;;;;;;;30.71;40.76;98791.81;1716604;81;21643;-69
2021/09/02 10:18:30;;;;;;;7.00;5.15;;;;;;;30.41;41.63;98792.33;1708980;81;21109;-69
2021/09/02 10:21:05;;;;;;;7.65;4.53;;;;;;;30.27;41.83;98794.16;1711961;81;21031;-67
2021/09/02 10:23:32;;;;;;;12.93;4.58;;;;;;;29.84;42.56;98790.98;1712238;81;22438;-70
2021/09/02 10:25:59;;;;;;;5.35;4.00;;;;;;;29.79;43.28;98791.26;1718583;81;21058;-69
2021/09/02 10:31:06;;;;;;;8.00;4.40;;;;;;;29.84;43.80;98793.67;1820774;78;21993;-67
2021/09/02 10:33:42;;;;;;;6.33;4.80;;;;;;;29.56;44.11;98820.58;1783111;79;21045;-68
2021/09/02 10:36:17;;;;;;;11.83;6.63;;;;;;;29.23;45.44;98829.67;1776964;79;21517;-68
2021/09/02 10:38:55;;;;;;;10.43;7.80;;;;;;;29.08;43.71;98839.23;1784192;79;21014;-69
2021/09/02 10:41:44;;;;;;;8.93;6.33;;;;;;;28.88;43.55;98843.41;1777392;79;20928;-66
2021/09/02 10:44:19;;;;;;;11.03;6.97;;;;;;;28.36;44.65;98851.59;1779532;79;20982;-67
2021/09/02 13:10:49;;;;;;;7.63;5.30;;;;;;;18.42;100.00;98811.34;1842489;76;23977;-72
2021/09/02 13:13:15;;;;;;;7.40;5.27;;;;;;;19.39;100.00;98801.56;1809345;77;21009;-72
2021/09/02 13:15:43;;;;;;;7.63;5.17;;;;;;;19.59;100.00;98795.89;1807087;78;21621;-74
2021/09/02 13:18:12;;;;;;;8.57;4.43;;;;;;;19.55;100.00;98800.94;1803885;78;22345;-73
2021/09/02 13:20:38;;;;;;;6.10;4.37;;;;;;;19.55;100.00;98806.22;1815525;78;20955;-74
2021/09/02 13:23:06;;;;;;;6.63;3.87;;;;;;;19.58;100.00;98821.50;1815012;78;20982;-71
2021/09/02 13:25:33;;;;;;;6.40;4.07;;;;;;;19.62;100.00;98823.09;1811954;78;21018;-76
2021/09/02 13:27:59;;;;;;;7.30;4.83;;;;;;;19.53;100.00;98822.88;1814971;78;21167;-72
2021/09/02 13:30:26;;;;;;;8.10;4.50;;;;;;;19.48;100.00;98830.07;1813179;78;20940;-69
2021/09/02 13:32:54;;;;;;;7.20;4.10;;;;;;;19.35;100.00;98830.93;1811013;78;21011;-69
2021/09/02 13:35:20;;;;;;;6.37;3.73;;;;;;;19.16;100.00;98834.75;1808805;78;22385;-65
2021/09/02 13:37:48;;;;;;;8.30;4.20;;;;;;;19.04;100.00;98850.16;1814072;78;21120;-67
2021/09/02 13:40:17;;;;;;;6.30;3.40;;;;;;;18.85;100.00;98861.87;1816373;78;21161;-65
2021/09/02 13:42:46;;;;;;;5.33;3.40;;;;;;;18.59;100.00;98870.38;1765336;79;21073;-68
2021/09/02 13:45:12;;;;;;;6.00;3.63;;;;;;;18.49;100.00;98884.95;1771829;79;20968;-65
2021/09/02 13:47:39;;;;;;;6.10;3.33;;;;;;;18.43;100.00;98893.92;1760140;80;20935;-68
2021/09/02 13:50:07;;;;;;;6.47;3.80;;;;;;;18.27;100.00;98895.02;1763742;80;22422;-67